sensor_id;sensor_type;location;lat;lon;timestamp;pressure;altitude;pressure_sealevel;temperature;humidity
70833;BME280;58452;59.418;17.962;2022-09-23T00:00:16;101607.88;;;11.95;75.53
70833;BME280;58452;59.418;17.962;2022-09-23T00:02:44;101618.59;;;11.69;76.06
70833;BME280;58452;59.418;17.962;2022-09-23T00:05:11;101603.28;;;11.78;75.83
70833;BME280;58452;59.418;17.962;2022-09-23T00:07:37;101607.44;;;11.90;75.56
70833;BME280;58452;59.418;17.962;2022-09-23T00:10:03;101619.69;;;11.88;75.74
70833;BME280;58452;59.418;17.962;2022-09-23T00:12:29;101605.66;;;11.90;75.79
70833;BME280;58452;59.418;17.962;2022-09-23T00:14:54;101604.19;;;11.97;75.38
70833;BME280;58452;59.418;17.962;2022-09-23T00:17:19;101621.06;;;11.92;75.46
70833;BME280;58452;59.418;17.962;2022-09-23T00:19:45;101613.72;;;11.97;75.34
70833;BME280;58452;59.418;17.962;2022-09-23T00:22:12;101613.22;;;12.03;75.40
70833;BME280;58452;59.418;17.962;2022-09-23T00:24:38;101607.22;;;12.02;75.38
70833;BME280;58452;59.418;17.962;2022-09-23T00:27:04;101606.13;;;12.05;75.51
70833;BME280;58452;59.418;17.962;2022-09-23T00:29:30;101601.53;;;12.08;75.27
70833;BME280;58452;59.418;17.962;2022-09-23T00:31:56;101595.53;;;12.08;75.26
70833;BME280;58452;59.418;17.962;2022-09-23T00:34:22;101602.59;;;12.06;75.40
70833;BME280;58452;59.418;17.962;2022-09-23T00:36:47;101600.69;;;12.08;75.15
70833;BME280;58452;59.418;17.962;2022-09-23T00:39:12;101595.53;;;12.08;75.26
70833;BME280;58452;59.418;17.962;2022-09-23T00:41:38;101598.56;;;12.13;75.14
70833;BME280;58452;59.418;17.962;2022-09-23T00:47:32;101594.06;;;12.15;75.29
70833;BME280;58452;59.418;17.962;2022-09-23T00:50:12;101590.63;;;12.14;75.27
70833;BME280;58452;59.418;17.962;2022-09-23T00:52:39;101592.56;;;12.12;75.54
70833;BME280;58452;59.418;17.962;2022-09-23T00:55:08;101583.84;;;12.13;75.34
70833;BME280;58452;59.418;17.962;2022-09-23T00:57:37;101590.63;;;12.14;75.41
70833;BME280;58452;59.418;17.962;2022-09-23T01:00:05;101583.84;;;12.13;75.46
70833;BME280;58452;59.418;17.962;2022-09-23T01:02:31;101583.28;;;12.10;75.33
70833;BME280;58452;59.418;17.962;2022-09-23T01:04:57;101583.28;;;12.10;75.50
70833;BME280;58452;59.418;17.962;2022-09-23T01:07:23;101572.78;;;12.11;75.42
70833;BME280;58452;59.418;17.962;2022-09-23T01:09:49;101574.56;;;12.11;75.69
70833;BME280;58452;59.418;17.962;2022-09-23T01:12:48;101575.38;;;12.11;75.82
70833;BME280;58452;59.418;17.962;2022-09-23T01:18:06;101573.59;;;12.02;75.93
70833;BME280;58452;59.418;17.962;2022-09-23T01:35:12;101575.00;;;11.86;76.19
70833;BME280;58452;59.418;17.962;2022-09-23T01:37:49;101572.41;;;11.86;76.30
70833;BME280;58452;59.418;17.962;2022-09-23T01:43:36;101566.81;;;11.81;76.16
70833;BME280;58452;59.418;17.962;2022-09-23T01:46:11;101561.78;;;11.79;76.09
70833;BME280;58452;59.418;17.962;2022-09-23T01:48:48;101563.91;;;11.74;75.73
70833;BME280;58452;59.418;17.962;2022-09-23T01:51:35;101566.50;;;11.74;75.80
70833;BME280;58452;59.418;17.962;2022-09-23T01:56:55;101563.47;;;11.69;76.63
70833;BME280;58452;59.418;17.962;2022-09-23T01:59:38;101561.00;;;11.67;76.40
70833;BME280;58452;59.418;17.962;2022-09-23T02:02:14;101568.91;;;11.66;76.51
70833;BME280;58452;59.418;17.962;2022-09-23T02:04:45;101562.91;;;11.65;76.48
70833;BME280;58452;59.418;17.962;2022-09-23T02:07:28;101564.78;;;11.63;76.34
70833;BME280;58452;59.418;17.962;2022-09-23T02:10:06;101560.44;;;11.64;76.71
70833;BME280;58452;59.418;17.962;2022-09-23T02:12:37;101556.34;;;11.61;76.91
70833;BME280;58452;59.418;17.962;2022-09-23T02:15:09;101562.19;;;11.63;76.97
70833;BME280;58452;59.418;17.962;2022-09-23T02:17:41;101557.16;;;11.62;76.97
70833;BME280;58452;59.418;17.962;2022-09-23T02:20:12;101558.66;;;11.64;77.00
70833;BME280;58452;59.418;17.962;2022-09-23T02:25:13;101553.66;;;11.63;77.08
70833;BME280;58452;59.418;17.962;2022-09-23T02:27:48;101555.16;;;11.65;77.17
70833;BME280;58452;59.418;17.962;2022-09-23T02:30:21;101546.44;;;11.66;77.08
70833;BME280;58452;59.418;17.962;2022-09-23T02:33:10;101545.75;;;11.64;77.02
70833;BME280;58452;59.418;17.962;2022-09-23T02:35:59;101547.50;;;11.64;77.06
70833;BME280;58452;59.418;17.962;2022-09-23T02:38:46;101549.03;;;11.66;77.06
70833;BME280;58452;59.418;17.962;2022-09-23T02:41:22;101544.91;;;11.64;77.19
70833;BME280;58452;59.418;17.962;2022-09-23T02:44:05;101544.91;;;11.64;77.08
70833;BME280;58452;59.418;17.962;2022-09-23T02:46:32;101543.31;;;11.63;77.27
70833;BME280;58452;59.418;17.962;2022-09-23T02:49:03;101547.66;;;11.62;77.38
70833;BME280;58452;59.418;17.962;2022-09-23T02:51:31;101540.84;;;11.61;77.40
70833;BME280;58452;59.418;17.962;2022-09-23T02:54:00;101537.31;;;11.62;77.37
70833;BME280;58452;59.418;17.962;2022-09-23T02:56:27;101534.00;;;11.60;77.50
70833;BME280;58452;59.418;17.962;2022-09-23T02:58:53;101539.06;;;11.62;77.52
70833;BME280;58452;59.418;17.962;2022-09-23T03:09:29;101530.19;;;11.55;77.38
70833;BME280;58452;59.418;17.962;2022-09-23T03:18:20;101517.19;;;11.45;77.49
70833;BME280;58452;59.418;17.962;2022-09-23T03:20:54;101516.53;;;11.43;77.61
70833;BME280;58452;59.418;17.962;2022-09-23T03:23:33;101514.88;;;11.42;77.29
70833;BME280;58452;59.418;17.962;2022-09-23T03:26:12;101516.78;;;11.40;77.46
70833;BME280;58452;59.418;17.962;2022-09-23T03:28:41;101506.00;;;11.35;77.40
70833;BME280;58452;59.418;17.962;2022-09-23T03:31:10;101510.50;;;11.33;77.45
70833;BME280;58452;59.418;17.962;2022-09-23T03:33:37;101507.19;;;11.31;77.61
70833;BME280;58452;59.418;17.962;2022-09-23T03:36:08;101509.09;;;11.29;77.33
70833;BME280;58452;59.418;17.962;2022-09-23T03:38:58;101506.06;;;11.24;77.56
70833;BME280;58452;59.418;17.962;2022-09-23T03:41:33;101502.81;;;11.22;77.72
70833;BME280;58452;59.418;17.962;2022-09-23T03:44:02;101499.50;;;11.20;77.63
70833;BME280;58452;59.418;17.962;2022-09-23T03:46:27;101497.31;;;11.15;77.64
70833;BME280;58452;59.418;17.962;2022-09-23T03:49:15;101494.88;;;11.14;77.42
70833;BME280;58452;59.418;17.962;2022-09-23T03:51:41;101492.91;;;11.06;77.40
70833;BME280;58452;59.418;17.962;2022-09-23T03:54:06;101491.25;;;11.05;77.11
70833;BME280;58452;59.418;17.962;2022-09-23T03:56:32;101499.38;;;11.01;77.09
70833;BME280;58452;59.418;17.962;2022-09-23T03:58:57;101493.06;;;10.94;77.11
70833;BME280;58452;59.418;17.962;2022-09-23T04:01:23;101501.53;;;10.96;76.75
70833;BME280;58452;59.418;17.962;2022-09-23T04:03:48;101493.34;;;10.91;76.86
70833;BME280;58452;59.418;17.962;2022-09-23T04:06:13;101500.41;;;10.89;76.25
70833;BME280;58452;59.418;17.962;2022-09-23T04:08:39;101491.50;;;10.82;76.65
70833;BME280;58452;59.418;17.962;2022-09-23T04:11:04;101487.53;;;10.77;76.68
70833;BME280;58452;59.418;17.962;2022-09-23T04:13:30;101485.06;;;10.76;76.73
70833;BME280;58452;59.418;17.962;2022-09-23T04:15:56;101486.41;;;10.70;76.80
70833;BME280;58452;59.418;17.962;2022-09-23T04:18:22;101475.88;;;10.62;76.68
70833;BME280;58452;59.418;17.962;2022-09-23T04:20:47;101481.03;;;10.62;76.66
70833;BME280;58452;59.418;17.962;2022-09-23T04:23:13;101485.63;;;10.59;76.64
70833;BME280;58452;59.418;17.962;2022-09-23T04:25:46;101484.13;;;10.56;76.32
70833;BME280;58452;59.418;17.962;2022-09-23T04:28:11;101488.00;;;10.51;76.37
70833;BME280;58452;59.418;17.962;2022-09-23T04:30:41;101482.97;;;10.49;76.59
70833;BME280;58452;59.418;17.962;2022-09-23T04:33:09;101478.28;;;10.43;76.93
70833;BME280;58452;59.418;17.962;2022-09-23T04:35:35;101479.22;;;10.42;77.15
70833;BME280;58452;59.418;17.962;2022-09-23T04:38:03;101481.00;;;10.42;76.92
70833;BME280;58452;59.418;17.962;2022-09-23T04:40:28;101485.34;;;10.41;77.34
70833;BME280;58452;59.418;17.962;2022-09-23T04:42:54;101488.84;;;10.40;77.12
70833;BME280;58452;59.418;17.962;2022-09-23T04:45:19;101493.19;;;10.40;77.48
70833;BME280;58452;59.418;17.962;2022-09-23T04:47:44;101494.25;;;10.37;77.49
70833;BME280;58452;59.418;17.962;2022-09-23T04:50:10;101495.31;;;10.35;77.78
70833;BME280;58452;59.418;17.962;2022-09-23T04:52:35;101499.41;;;10.37;77.94
70833;BME280;58452;59.418;17.962;2022-09-23T04:55:00;101496.84;;;10.37;78.18
70833;BME280;58452;59.418;17.962;2022-09-23T04:57:26;101493.53;;;10.35;78.37
70833;BME280;58452;59.418;17.962;2022-09-23T04:59:52;101495.19;;;10.36;78.55
70833;BME280;58452;59.418;17.962;2022-09-23T05:02:20;101485.81;;;10.35;78.94
70833;BME280;58452;59.418;17.962;2022-09-23T05:04:45;101496.69;;;10.39;78.92
70833;BME280;58452;59.418;17.962;2022-09-23T05:07:11;101492.94;;;10.43;78.92
70833;BME280;58452;59.418;17.962;2022-09-23T05:09:36;101486.94;;;10.42;79.11
70833;BME280;58452;59.418;17.962;2022-09-23T05:12:03;101485.34;;;10.41;79.53
70833;BME280;58452;59.418;17.962;2022-09-23T05:14:28;101493.50;;;10.46;79.43
70833;BME280;58452;59.418;17.962;2022-09-23T05:16:54;101489.88;;;10.49;79.59
70833;BME280;58452;59.418;17.962;2022-09-23T05:19:19;101501.47;;;10.54;79.89
70833;BME280;58452;59.418;17.962;2022-09-23T05:21:44;101487.63;;;10.55;80.08
70833;BME280;58452;59.418;17.962;2022-09-23T05:24:11;101503.56;;;10.60;79.89
70833;BME280;58452;59.418;17.962;2022-09-23T05:26:36;101499.22;;;10.61;80.60
70833;BME280;58452;59.418;17.962;2022-09-23T05:29:02;101500.75;;;10.63;80.57
70833;BME280;58452;59.418;17.962;2022-09-23T05:31:29;101502.00;;;10.69;80.70
70833;BME280;58452;59.418;17.962;2022-09-23T05:34:02;101498.34;;;10.71;80.63
70833;BME280;58452;59.418;17.962;2022-09-23T05:36:30;101497.88;;;10.77;80.74
70833;BME280;58452;59.418;17.962;2022-09-23T05:38:55;101494.00;;;10.72;81.44
70833;BME280;58452;59.418;17.962;2022-09-23T05:41:22;101500.31;;;10.79;81.04
70833;BME280;58452;59.418;17.962;2022-09-23T05:43:50;101509.84;;;10.78;81.20
70833;BME280;58452;59.418;17.962;2022-09-23T05:46:23;101511.66;;;10.88;81.17
70833;BME280;58452;59.418;17.962;2022-09-23T05:48:49;101510.97;;;10.86;81.87
70833;BME280;58452;59.418;17.962;2022-09-23T05:51:17;101514.25;;;10.88;81.65
70833;BME280;58452;59.418;17.962;2022-09-23T05:53:45;101515.06;;;10.88;81.71
70833;BME280;58452;59.418;17.962;2022-09-23T05:56:16;101513.31;;;10.89;81.80
70833;BME280;58452;59.418;17.962;2022-09-23T05:58:42;101518.69;;;10.97;81.75
70833;BME280;58452;59.418;17.962;2022-09-23T06:01:15;101516.78;;;10.99;81.95
70833;BME280;58452;59.418;17.962;2022-09-23T06:03:48;101514.66;;;11.04;81.65
70833;BME280;58452;59.418;17.962;2022-09-23T06:06:14;101516.72;;;11.10;81.90
70833;BME280;58452;59.418;17.962;2022-09-23T06:08:42;101510.09;;;11.17;81.46
70833;BME280;58452;59.418;17.962;2022-09-23T06:11:08;101513.63;;;11.16;81.38
70833;BME280;58452;59.418;17.962;2022-09-23T06:13:35;101514.19;;;11.19;81.33
70833;BME280;58452;59.418;17.962;2022-09-23T06:16:05;101513.13;;;11.22;81.38
70833;BME280;58452;59.418;17.962;2022-09-23T06:18:32;101507.75;;;11.35;80.99
70833;BME280;58452;59.418;17.962;2022-09-23T06:21:00;101509.16;;;11.39;80.67
70833;BME280;58452;59.418;17.962;2022-09-23T06:23:29;101499.75;;;11.38;80.74
70833;BME280;58452;59.418;17.962;2022-09-23T06:26:05;101496.03;;;11.31;80.84
70833;BME280;58452;59.418;17.962;2022-09-23T06:28:34;101494.97;;;11.33;80.29
70833;BME280;58452;59.418;17.962;2022-09-23T06:31:04;101487.09;;;11.14;80.59
70833;BME280;58452;59.418;17.962;2022-09-23T06:33:38;101469.22;;;11.22;80.01
70833;BME280;58452;59.418;17.962;2022-09-23T06:36:09;101507.81;;;11.44;80.09
70833;BME280;58452;59.418;17.962;2022-09-23T06:38:41;101497.03;;;11.39;79.94
70833;BME280;58452;59.418;17.962;2022-09-23T06:41:10;101483.84;;;11.42;79.71
70833;BME280;58452;59.418;17.962;2022-09-23T06:43:36;101493.81;;;11.47;79.73
70833;BME280;58452;59.418;17.962;2022-09-23T06:46:04;101470.25;;;11.40;79.67
70833;BME280;58452;59.418;17.962;2022-09-23T07:07:43;101509.75;;;12.22;78.20
70833;BME280;58452;59.418;17.962;2022-09-23T07:10:10;101495.47;;;12.18;78.27
70833;BME280;58452;59.418;17.962;2022-09-23T07:12:36;101494.22;;;12.22;78.54
70833;BME280;58452;59.418;17.962;2022-09-23T07:15:02;101501.03;;;12.23;77.53
70833;BME280;58452;59.418;17.962;2022-09-23T07:17:28;101495.69;;;12.05;77.70
70833;BME280;58452;59.418;17.962;2022-09-23T07:19:57;101483.31;;;12.09;77.67
70833;BME280;58452;59.418;17.962;2022-09-23T07:22:24;101469.94;;;12.04;77.93
70833;BME280;58452;59.418;17.962;2022-09-23T07:24:54;101486.03;;;12.07;77.95
70833;BME280;58452;59.418;17.962;2022-09-23T07:27:23;101472.25;;;11.97;77.50
70833;BME280;58452;59.418;17.962;2022-09-23T07:29:49;101487.13;;;12.05;77.05
70833;BME280;58452;59.418;17.962;2022-09-23T07:32:16;101487.13;;;12.14;77.13
70833;BME280;58452;59.418;17.962;2022-09-23T07:34:42;101497.75;;;12.11;77.42
70833;BME280;58452;59.418;17.962;2022-09-23T07:37:09;101490.00;;;12.11;77.79
70833;BME280;58452;59.418;17.962;2022-09-23T07:39:36;101484.16;;;12.19;77.79
70833;BME280;58452;59.418;17.962;2022-09-23T07:42:02;101467.25;;;12.15;77.78
70833;BME280;58452;59.418;17.962;2022-09-23T07:44:29;101481.84;;;12.25;77.62
70833;BME280;58452;59.418;17.962;2022-09-23T07:46:56;101480.63;;;12.30;76.95
70833;BME280;58452;59.418;17.962;2022-09-23T07:49:22;101504.09;;;12.47;77.01
70833;BME280;58452;59.418;17.962;2022-09-23T07:51:48;101489.34;;;12.38;76.79
70833;BME280;58452;59.418;17.962;2022-09-23T07:54:17;101503.28;;;12.56;76.53
70833;BME280;58452;59.418;17.962;2022-09-23T07:56:44;101466.34;;;12.35;77.00
70833;BME280;58452;59.418;17.962;2022-09-23T07:59:13;101504.91;;;12.57;75.75
70833;BME280;58452;59.418;17.962;2022-09-23T08:01:47;101506.56;;;12.58;76.15
70833;BME280;58452;59.418;17.962;2022-09-23T08:06:50;101509.25;;;12.66;76.11
70833;BME280;58452;59.418;17.962;2022-09-23T08:09:17;101508.75;;;12.72;75.87
70833;BME280;58452;59.418;17.962;2022-09-23T08:11:42;101509.84;;;12.80;76.72
70833;BME280;58452;59.418;17.962;2022-09-23T08:14:09;101515.16;;;12.88;75.72
70833;BME280;58452;59.418;17.962;2022-09-23T08:16:37;101511.19;;;12.84;75.87
70833;BME280;58452;59.418;17.962;2022-09-23T08:19:04;101511.56;;;12.69;75.60
70833;BME280;58452;59.418;17.962;2022-09-23T08:21:29;101508.31;;;12.67;75.45
70833;BME280;58452;59.418;17.962;2022-09-23T08:23:55;101497.44;;;12.54;76.03
70833;BME280;58452;59.418;17.962;2022-09-23T08:26:21;101501.91;;;12.71;75.86
70833;BME280;58452;59.418;17.962;2022-09-23T08:28:46;101504.22;;;12.74;75.67
70833;BME280;58452;59.418;17.962;2022-09-23T08:31:12;101503.28;;;12.76;75.62
70833;BME280;58452;59.418;17.962;2022-09-23T08:33:39;101492.22;;;12.93;75.42
70833;BME280;58452;59.418;17.962;2022-09-23T08:36:05;101485.41;;;13.01;74.05
70833;BME280;58452;59.418;17.962;2022-09-23T08:38:31;101477.63;;;13.01;74.97
70833;BME280;58452;59.418;17.962;2022-09-23T08:43:51;101489.06;;;13.18;75.16
70833;BME280;58452;59.418;17.962;2022-09-23T08:46:28;101480.63;;;13.16;74.48
70833;BME280;58452;59.418;17.962;2022-09-23T08:48:58;101471.88;;;13.27;74.71
70833;BME280;58452;59.418;17.962;2022-09-23T08:51:32;101473.47;;;13.37;74.03
70833;BME280;58452;59.418;17.962;2022-09-23T08:53:59;101481.91;;;13.49;73.67
70833;BME280;58452;59.418;17.962;2022-09-23T08:56:26;101482.03;;;13.47;73.30
70833;BME280;58452;59.418;17.962;2022-09-23T08:59:06;101483.09;;;13.54;73.05
70833;BME280;58452;59.418;17.962;2022-09-23T09:01:40;101481.66;;;13.42;72.62
70833;BME280;58452;59.418;17.962;2022-09-23T09:04:22;101483.78;;;13.56;72.28
70833;BME280;58452;59.418;17.962;2022-09-23T09:09:46;101459.25;;;13.68;73.83
70833;BME280;58452;59.418;17.962;2022-09-23T09:12:19;101464.41;;;13.51;72.51
70833;BME280;58452;59.418;17.962;2022-09-23T09:15:26;101475.22;;;13.74;72.71
70833;BME280;58452;59.418;17.962;2022-09-23T09:18:04;101478.50;;;13.76;71.51
70833;BME280;58452;59.418;17.962;2022-09-23T09:20:39;101481.44;;;13.63;71.72
70833;BME280;58452;59.418;17.962;2022-09-23T09:25:49;101469.56;;;13.60;72.21
70833;BME280;58452;59.418;17.962;2022-09-23T09:28:43;101476.97;;;13.83;73.01
70833;BME280;58452;59.418;17.962;2022-09-23T09:31:23;101475.38;;;13.99;71.37
70833;BME280;58452;59.418;17.962;2022-09-23T09:39:23;101453.25;;;13.95;71.52
70833;BME280;58452;59.418;17.962;2022-09-23T09:41:50;101459.97;;;14.15;70.90
70833;BME280;58452;59.418;17.962;2022-09-23T09:44:23;101461.75;;;14.15;70.62
70833;BME280;58452;59.418;17.962;2022-09-23T09:46:56;101463.63;;;13.95;69.19
70833;BME280;58452;59.418;17.962;2022-09-23T09:52:21;101460.84;;;14.24;70.47
70833;BME280;58452;59.418;17.962;2022-09-23T09:54:47;101467.50;;;14.36;68.41
70833;BME280;58452;59.418;17.962;2022-09-23T09:57:36;101471.72;;;14.19;68.97
70833;BME280;58452;59.418;17.962;2022-09-23T10:02:50;101468.19;;;14.11;69.91
70833;BME280;58452;59.418;17.962;2022-09-23T10:05:34;101465.69;;;14.19;69.76
70833;BME280;58452;59.418;17.962;2022-09-23T10:11:14;101453.66;;;14.18;70.68
70833;BME280;58452;59.418;17.962;2022-09-23T10:13:59;101432.06;;;14.17;69.14
70833;BME280;58452;59.418;17.962;2022-09-23T10:16:30;101440.75;;;14.26;68.78
70833;BME280;58452;59.418;17.962;2022-09-23T10:18:58;101411.31;;;14.17;68.68
70833;BME280;58452;59.418;17.962;2022-09-23T10:21:31;101431.81;;;14.38;68.35
70833;BME280;58452;59.418;17.962;2022-09-23T10:24:01;101446.56;;;14.55;69.39
70833;BME280;58452;59.418;17.962;2022-09-23T10:26:37;101408.28;;;14.22;68.04
70833;BME280;58452;59.418;17.962;2022-09-23T10:29:22;101395.50;;;14.11;67.46
70833;BME280;58452;59.418;17.962;2022-09-23T10:31:50;101412.34;;;14.25;66.73
70833;BME280;58452;59.418;17.962;2022-09-23T10:34:35;101402.56;;;14.18;66.71
70833;BME280;58452;59.418;17.962;2022-09-23T10:37:17;101413.34;;;14.41;66.91
70833;BME280;58452;59.418;17.962;2022-09-23T10:39:47;101403.22;;;14.38;66.40
70833;BME280;58452;59.418;17.962;2022-09-23T10:42:59;101424.16;;;14.54;65.37
70833;BME280;58452;59.418;17.962;2022-09-23T10:45:48;101425.41;;;14.50;64.38
70833;BME280;58452;59.418;17.962;2022-09-23T10:48:52;101428.47;;;14.63;64.13
70833;BME280;58452;59.418;17.962;2022-09-23T10:54:00;101419.44;;;14.76;62.06
70833;BME280;58452;59.418;17.962;2022-09-23T10:56:36;101406.06;;;14.88;63.35
70833;BME280;58452;59.418;17.962;2022-09-23T11:02:03;101409.88;;;15.02;60.90
70833;BME280;58452;59.418;17.962;2022-09-23T11:04:40;101410.63;;;15.20;62.31
70833;BME280;58452;59.418;17.962;2022-09-23T11:09:49;101402.22;;;15.26;58.42
70833;BME280;58452;59.418;17.962;2022-09-23T11:23:47;101397.19;;;15.75;58.76
70833;BME280;58452;59.418;17.962;2022-09-23T11:29:17;101394.81;;;15.97;55.56
70833;BME280;58452;59.418;17.962;2022-09-23T11:35:08;101387.81;;;15.98;56.22
70833;BME280;58452;59.418;17.962;2022-09-23T11:37:41;101376.72;;;15.80;56.02
70833;BME280;58452;59.418;17.962;2022-09-23T11:40:30;101388.66;;;16.06;57.47
70833;BME280;58452;59.418;17.962;2022-09-23T11:43:05;101382.75;;;15.96;54.97
70833;BME280;58452;59.418;17.962;2022-09-23T11:46:01;101395.28;;;15.93;56.34
70833;BME280;58452;59.418;17.962;2022-09-23T11:48:54;101385.16;;;15.74;51.92
70833;BME280;58452;59.418;17.962;2022-09-23T11:54:14;101393.66;;;15.84;54.27
70833;BME280;58452;59.418;17.962;2022-09-23T11:56:44;101361.41;;;15.69;53.74
70833;BME280;58452;59.418;17.962;2022-09-23T12:02:02;101380.66;;;16.08;56.03
70833;BME280;58452;59.418;17.962;2022-09-23T12:04:32;101377.09;;;16.17;54.38
70833;BME280;58452;59.418;17.962;2022-09-23T12:09:39;101381.63;;;16.47;53.17
70833;BME280;58452;59.418;17.962;2022-09-23T12:15:05;101367.16;;;16.53;51.06
70833;BME280;58452;59.418;17.962;2022-09-23T12:20:31;101371.91;;;16.66;50.84
70833;BME280;58452;59.418;17.962;2022-09-23T12:26:22;101364.34;;;16.87;50.83
70833;BME280;58452;59.418;17.962;2022-09-23T12:28:51;101361.41;;;16.90;49.72
70833;BME280;58452;59.418;17.962;2022-09-23T12:31:21;101359.59;;;16.98;48.95
70833;BME280;58452;59.418;17.962;2022-09-23T12:33:56;101357.09;;;17.13;49.50
70833;BME280;58452;59.418;17.962;2022-09-23T12:36:29;101351.81;;;17.21;50.24
70833;BME280;58452;59.418;17.962;2022-09-23T12:39:13;101350.97;;;17.29;51.26
70833;BME280;58452;59.418;17.962;2022-09-23T12:41:44;101342.31;;;17.36;51.82
70833;BME280;58452;59.418;17.962;2022-09-23T12:44:36;101351.06;;;17.43;50.29
70833;BME280;58452;59.418;17.962;2022-09-23T12:49:48;101347.91;;;17.56;49.64
70833;BME280;58452;59.418;17.962;2022-09-23T12:54:42;101346.78;;;17.28;48.96
70833;BME280;58452;59.418;17.962;2022-09-23T13:02:36;101339.78;;;17.59;52.27
70833;BME280;58452;59.418;17.962;2022-09-23T13:05:23;101333.22;;;17.63;52.70
70833;BME280;58452;59.418;17.962;2022-09-23T13:08:12;101334.38;;;17.61;51.04
70833;BME280;58452;59.418;17.962;2022-09-23T13:10:44;101333.34;;;17.70;50.45
70833;BME280;58452;59.418;17.962;2022-09-23T13:13:31;101330.09;;;17.68;50.42
70833;BME280;58452;59.418;17.962;2022-09-23T13:18:52;101325.09;;;17.81;51.61
70833;BME280;58452;59.418;17.962;2022-09-23T13:27:02;101317.94;;;17.83;50.89
70833;BME280;58452;59.418;17.962;2022-09-23T13:29:48;101315.59;;;17.88;50.35
70833;BME280;58452;59.418;17.962;2022-09-23T13:32:16;101326.09;;;17.80;51.98
70833;BME280;58452;59.418;17.962;2022-09-23T13:34:53;101314.66;;;17.81;51.13
70833;BME280;58452;59.418;17.962;2022-09-23T13:37:45;101317.56;;;17.63;47.98
70833;BME280;58452;59.418;17.962;2022-09-23T13:42:40;101308.50;;;17.74;49.90
70833;BME280;58452;59.418;17.962;2022-09-23T13:45:13;101311.56;;;17.46;47.96
70833;BME280;58452;59.418;17.962;2022-09-23T13:47:41;101312.22;;;17.56;47.18
70833;BME280;58452;59.418;17.962;2022-09-23T13:50:22;101303.22;;;17.59;48.02
70833;BME280;58452;59.418;17.962;2022-09-23T13:52:59;101309.25;;;17.60;48.80
70833;BME280;58452;59.418;17.962;2022-09-23T13:55:31;101310.44;;;17.49;47.74
70833;BME280;58452;59.418;17.962;2022-09-23T13:58:12;101303.13;;;17.44;48.29
70833;BME280;58452;59.418;17.962;2022-09-23T14:00:38;101296.63;;;17.40;50.68
70833;BME280;58452;59.418;17.962;2022-09-23T14:05:42;101296.28;;;17.43;48.70
70833;BME280;58452;59.418;17.962;2022-09-23T14:08:08;101304.16;;;17.35;50.46
70833;BME280;58452;59.418;17.962;2022-09-23T14:10:34;101299.97;;;17.26;50.88
70833;BME280;58452;59.418;17.962;2022-09-23T14:13:00;101294.59;;;17.28;51.33
70833;BME280;58452;59.418;17.962;2022-09-23T14:15:25;101295.22;;;17.30;52.81
70833;BME280;58452;59.418;17.962;2022-09-23T14:18:01;101291.88;;;17.13;50.45
70833;BME280;58452;59.418;17.962;2022-09-23T14:20:27;101294.34;;;17.06;50.75
70833;BME280;58452;59.418;17.962;2022-09-23T14:23:08;101299.16;;;16.95;51.92
70833;BME280;58452;59.418;17.962;2022-09-23T14:25:35;101290.50;;;16.94;51.62
70833;BME280;58452;59.418;17.962;2022-09-23T14:28:01;101291.69;;;16.84;51.52
70833;BME280;58452;59.418;17.962;2022-09-23T14:30:27;101291.50;;;16.85;51.74
70833;BME280;58452;59.418;17.962;2022-09-23T14:32:52;101289.41;;;16.81;51.94
70833;BME280;58452;59.418;17.962;2022-09-23T14:35:24;101295.00;;;16.62;52.53
70833;BME280;58452;59.418;17.962;2022-09-23T14:37:55;101291.41;;;16.63;52.39
70833;BME280;58452;59.418;17.962;2022-09-23T14:40:51;101288.66;;;16.48;52.88
70833;BME280;58452;59.418;17.962;2022-09-23T14:43:38;101291.63;;;16.21;53.31
70833;BME280;58452;59.418;17.962;2022-09-23T14:46:04;101289.50;;;16.24;54.35
70833;BME280;58452;59.418;17.962;2022-09-23T14:48:31;101299.59;;;16.35;54.36
70833;BME280;58452;59.418;17.962;2022-09-23T14:51:05;101290.47;;;16.39;56.32
70833;BME280;58452;59.418;17.962;2022-09-23T15:03:49;101298.47;;;15.89;54.18
70833;BME280;58452;59.418;17.962;2022-09-23T15:06:14;101293.09;;;15.83;55.42
70833;BME280;58452;59.418;17.962;2022-09-23T15:08:43;101296.66;;;15.82;54.96
70833;BME280;58452;59.418;17.962;2022-09-23T15:11:09;101295.88;;;15.81;54.72
70833;BME280;58452;59.418;17.962;2022-09-23T15:13:38;101294.88;;;15.74;55.24
70833;BME280;58452;59.418;17.962;2022-09-23T15:16:04;101292.44;;;15.64;52.67
70833;BME280;58452;59.418;17.962;2022-09-23T15:18:35;101292.09;;;15.59;53.10
70833;BME280;58452;59.418;17.962;2022-09-23T15:21:17;101295.03;;;15.64;52.96
70833;BME280;58452;59.418;17.962;2022-09-23T15:23:52;101291.06;;;15.36;52.71
70833;BME280;58452;59.418;17.962;2022-09-23T15:26:40;101295.66;;;15.50;53.60
70833;BME280;58452;59.418;17.962;2022-09-23T15:29:09;101289.50;;;15.51;52.55
70833;BME280;58452;59.418;17.962;2022-09-23T15:31:34;101295.50;;;15.52;54.00
70833;BME280;58452;59.418;17.962;2022-09-23T15:34:02;101292.41;;;15.56;52.25
70833;BME280;58452;59.418;17.962;2022-09-23T15:36:29;101292.09;;;15.51;52.30
70833;BME280;58452;59.418;17.962;2022-09-23T15:39:00;101297.94;;;15.53;52.20
70833;BME280;58452;59.418;17.962;2022-09-23T15:41:26;101300.72;;;15.52;52.76
70833;BME280;58452;59.418;17.962;2022-09-23T15:43:51;101287.13;;;15.32;53.37
70833;BME280;58452;59.418;17.962;2022-09-23T15:46:22;101290.38;;;15.34;54.69